sensor_id;sensor_type;location;lat;lon;timestamp;pressure;altitude;pressure_sealevel;temperature;humidity
41706;BME280;27385;51.096;17.190;2023-04-22T00:01:23;100255.00;;;7.51;63.49
41706;BME280;27385;51.096;17.190;2023-04-22T00:03:55;100250.66;;;7.46;63.64
41706;BME280;27385;51.096;17.190;2023-04-22T00:06:26;100249.02;;;7.42;63.75
41706;BME280;27385;51.096;17.190;2023-04-22T00:08:57;100249.67;;;7.38;63.96
41706;BME280;27385;51.096;17.190;2023-04-22T00:11:28;100249.96;;;7.32;64.15
41706;BME280;27385;51.096;17.190;2023-04-22T00:13:59;100249.79;;;7.28;64.01
41706;BME280;27385;51.096;17.190;2023-04-22T00:16:30;100248.92;;;7.24;64.23
41706;BME280;27385;51.096;17.190;2023-04-22T00:19:01;100248.99;;;7.21;64.27
41706;BME280;27385;51.096;17.190;2023-04-22T00:21:33;100250.34;;;7.19;64.36
41706;BME280;27385;51.096;17.190;2023-04-22T00:24:05;100243.56;;;7.13;64.56
41706;BME280;27385;51.096;17.190;2023-04-22T00:26:36;100241.95;;;7.10;64.67
41706;BME280;27385;51.096;17.190;2023-04-22T00:29:06;100247.36;;;7.08;64.81
41706;BME280;27385;51.096;17.190;2023-04-22T00:31:37;100246.60;;;7.05;64.90
41706;BME280;27385;51.096;17.190;2023-04-22T00:34:08;100249.34;;;7.02;65.03
41706;BME280;27385;51.096;17.190;2023-04-22T00:36:39;100238.43;;;6.96;65.18
41706;BME280;27385;51.096;17.190;2023-04-22T00:39:10;100244.48;;;6.92;65.32
41706;BME280;27385;51.096;17.190;2023-04-22T00:41:43;100243.55;;;6.87;65.46
41706;BME280;27385;51.096;17.190;2023-04-22T00:44:13;100244.36;;;6.85;65.58
41706;BME280;27385;51.096;17.190;2023-04-22T00:46:45;100243.77;;;6.81;65.92
41706;BME280;27385;51.096;17.190;2023-04-22T00:49:17;100244.13;;;6.76;66.10
41706;BME280;27385;51.096;17.190;2023-04-22T00:51:49;100244.50;;;6.73;66.30
41706;BME280;27385;51.096;17.190;2023-04-22T00:54:20;100246.83;;;6.70;66.17
41706;BME280;27385;51.096;17.190;2023-04-22T00:56:51;100248.83;;;6.69;66.24
41706;BME280;27385;51.096;17.190;2023-04-22T00:59:23;100245.29;;;6.66;66.36
41706;BME280;27385;51.096;17.190;2023-04-22T01:01:56;100249.64;;;6.62;66.48
41706;BME280;27385;51.096;17.190;2023-04-22T01:04:28;100251.75;;;6.56;66.60
41706;BME280;27385;51.096;17.190;2023-04-22T01:07:00;100251.98;;;6.52;66.75
41706;BME280;27385;51.096;17.190;2023-04-22T01:09:31;100251.86;;;6.49;66.69
41706;BME280;27385;51.096;17.190;2023-04-22T01:12:02;100256.08;;;6.48;66.86
41706;BME280;27385;51.096;17.190;2023-04-22T01:14:34;100261.19;;;6.45;67.15
41706;BME280;27385;51.096;17.190;2023-04-22T01:17:04;100268.34;;;6.39;67.24
41706;BME280;27385;51.096;17.190;2023-04-22T01:19:38;100262.71;;;6.34;67.82
41706;BME280;27385;51.096;17.190;2023-04-22T01:22:12;100261.48;;;6.29;67.75
41706;BME280;27385;51.096;17.190;2023-04-22T01:24:43;100262.25;;;6.24;67.79
41706;BME280;27385;51.096;17.190;2023-04-22T01:27:14;100260.13;;;6.21;67.99
41706;BME280;27385;51.096;17.190;2023-04-22T01:29:45;100258.59;;;6.18;68.03
41706;BME280;27385;51.096;17.190;2023-04-22T01:32:17;100259.45;;;6.18;68.04
41706;BME280;27385;51.096;17.190;2023-04-22T01:34:48;100262.94;;;6.18;68.17
41706;BME280;27385;51.096;17.190;2023-04-22T01:37:19;100260.70;;;6.16;68.13
41706;BME280;27385;51.096;17.190;2023-04-22T01:39:50;100257.27;;;6.15;68.39
41706;BME280;27385;51.096;17.190;2023-04-22T01:42:21;100259.80;;;6.08;68.42
41706;BME280;27385;51.096;17.190;2023-04-22T01:44:52;100254.54;;;6.02;68.66
41706;BME280;27385;51.096;17.190;2023-04-22T01:47:23;100251.48;;;5.99;68.87
41706;BME280;27385;51.096;17.190;2023-04-22T01:49:55;100247.23;;;5.91;69.39
41706;BME280;27385;51.096;17.190;2023-04-22T01:52:28;100253.55;;;5.92;69.15
41706;BME280;27385;51.096;17.190;2023-04-22T01:54:59;100245.42;;;5.89;69.26
41706;BME280;27385;51.096;17.190;2023-04-22T01:57:31;100244.70;;;5.84;69.27
41706;BME280;27385;51.096;17.190;2023-04-22T02:00:02;100242.16;;;5.84;69.32
41706;BME280;27385;51.096;17.190;2023-04-22T02:02:34;100242.72;;;5.84;69.18
41706;BME280;27385;51.096;17.190;2023-04-22T02:05:07;100243.63;;;5.86;69.31
41706;BME280;27385;51.096;17.190;2023-04-22T02:07:38;100241.52;;;5.87;69.18
41706;BME280;27385;51.096;17.190;2023-04-22T02:10:10;100241.16;;;5.88;69.15
41706;BME280;27385;51.096;17.190;2023-04-22T02:12:41;100236.00;;;5.89;69.27
41706;BME280;27385;51.096;17.190;2023-04-22T02:15:12;100234.65;;;5.89;69.21
41706;BME280;27385;51.096;17.190;2023-04-22T02:17:43;100235.99;;;5.89;69.53
41706;BME280;27385;51.096;17.190;2023-04-22T02:20:14;100233.24;;;5.88;69.51
41706;BME280;27385;51.096;17.190;2023-04-22T02:22:45;100231.80;;;5.86;69.48
41706;BME280;27385;51.096;17.190;2023-04-22T02:25:17;100231.12;;;5.85;69.55
41706;BME280;27385;51.096;17.190;2023-04-22T02:27:48;100223.44;;;5.83;69.69
41706;BME280;27385;51.096;17.190;2023-04-22T02:30:18;100224.59;;;5.81;69.73
41706;BME280;27385;51.096;17.190;2023-04-22T02:32:49;100225.36;;;5.79;69.75
41706;BME280;27385;51.096;17.190;2023-04-22T02:35:20;100225.20;;;5.77;69.76
41706;BME280;27385;51.096;17.190;2023-04-22T02:37:51;100223.44;;;5.73;69.81
41706;BME280;27385;51.096;17.190;2023-04-22T02:40:23;100223.31;;;5.69;69.98
41706;BME280;27385;51.096;17.190;2023-04-22T02:42:53;100224.94;;;5.63;69.89
41706;BME280;27385;51.096;17.190;2023-04-22T02:45:24;100226.38;;;5.60;70.22
41706;BME280;27385;51.096;17.190;2023-04-22T02:47:55;100220.09;;;5.55;70.00
41706;BME280;27385;51.096;17.190;2023-04-22T02:50:26;100222.39;;;5.52;70.22
41706;BME280;27385;51.096;17.190;2023-04-22T02:52:57;100220.50;;;5.49;70.27
41706;BME280;27385;51.096;17.190;2023-04-22T02:55:28;100215.61;;;5.46;70.29
41706;BME280;27385;51.096;17.190;2023-04-22T02:57:58;100210.45;;;5.40;70.31
41706;BME280;27385;51.096;17.190;2023-04-22T03:00:29;100216.14;;;5.38;70.34
41706;BME280;27385;51.096;17.190;2023-04-22T03:03:00;100214.13;;;5.34;70.53
41706;BME280;27385;51.096;17.190;2023-04-22T03:05:31;100213.52;;;5.30;70.51
41706;BME280;27385;51.096;17.190;2023-04-22T03:08:02;100216.02;;;5.26;70.52
41706;BME280;27385;51.096;17.190;2023-04-22T03:10:33;100215.54;;;5.21;70.62
41706;BME280;27385;51.096;17.190;2023-04-22T03:13:05;100216.96;;;5.19;70.75
41706;BME280;27385;51.096;17.190;2023-04-22T03:15:36;100216.41;;;5.17;70.80
41706;BME280;27385;51.096;17.190;2023-04-22T03:18:07;100218.48;;;5.14;70.80
41706;BME280;27385;51.096;17.190;2023-04-22T03:20:38;100215.89;;;5.10;70.78
41706;BME280;27385;51.096;17.190;2023-04-22T03:23:09;100216.91;;;5.08;70.87
41706;BME280;27385;51.096;17.190;2023-04-22T03:25:39;100215.04;;;5.08;70.87
41706;BME280;27385;51.096;17.190;2023-04-22T03:28:10;100211.76;;;5.06;70.98
41706;BME280;27385;51.096;17.190;2023-04-22T03:30:41;100213.77;;;5.05;70.98
41706;BME280;27385;51.096;17.190;2023-04-22T03:33:12;100213.34;;;5.03;71.14
41706;BME280;27385;51.096;17.190;2023-04-22T03:35:43;100209.67;;;5.02;71.25
41706;BME280;27385;51.096;17.190;2023-04-22T03:38:17;100207.20;;;5.00;71.23
41706;BME280;27385;51.096;17.190;2023-04-22T03:40:48;100203.76;;;4.99;71.35
41706;BME280;27385;51.096;17.190;2023-04-22T03:43:18;100203.95;;;4.97;71.32
41706;BME280;27385;51.096;17.190;2023-04-22T03:45:51;100199.45;;;4.94;71.45
41706;BME280;27385;51.096;17.190;2023-04-22T03:48:22;100205.19;;;4.90;71.57
41706;BME280;27385;51.096;17.190;2023-04-22T03:50:53;100202.94;;;4.89;71.63
41706;BME280;27385;51.096;17.190;2023-04-22T03:53:24;100203.10;;;4.89;71.72
41706;BME280;27385;51.096;17.190;2023-04-22T03:55:55;100197.41;;;4.87;71.79
41706;BME280;27385;51.096;17.190;2023-04-22T03:58:25;100200.55;;;4.85;71.86
41706;BME280;27385;51.096;17.190;2023-04-22T04:00:56;100201.94;;;4.83;71.91
41706;BME280;27385;51.096;17.190;2023-04-22T04:03:27;100201.00;;;4.80;72.01
41706;BME280;27385;51.096;17.190;2023-04-22T04:05:58;100202.19;;;4.77;72.11
41706;BME280;27385;51.096;17.190;2023-04-22T04:08:28;100201.50;;;4.74;72.30
41706;BME280;27385;51.096;17.190;2023-04-22T04:10:59;100201.21;;;4.71;72.44
41706;BME280;27385;51.096;17.190;2023-04-22T04:13:30;100201.23;;;4.68;72.60
41706;BME280;27385;51.096;17.190;2023-04-22T04:16:01;100198.49;;;4.64;72.70
41706;BME280;27385;51.096;17.190;2023-04-22T04:18:32;100198.09;;;4.61;72.81
41706;BME280;27385;51.096;17.190;2023-04-22T04:21:03;100203.36;;;4.60;72.93
41706;BME280;27385;51.096;17.190;2023-04-22T04:23:34;100202.58;;;4.59;73.16
41706;BME280;27385;51.096;17.190;2023-04-22T04:26:06;100205.73;;;4.59;73.13
41706;BME280;27385;51.096;17.190;2023-04-22T04:28:37;100204.84;;;4.60;73.18
41706;BME280;27385;51.096;17.190;2023-04-22T04:31:08;100202.59;;;4.62;73.39
41706;BME280;27385;51.096;17.190;2023-04-22T04:33:38;100197.86;;;4.64;73.57
41706;BME280;27385;51.096;17.190;2023-04-22T04:36:09;100199.98;;;4.66;73.62
41706;BME280;27385;51.096;17.190;2023-04-22T04:38:40;100202.95;;;4.71;73.91
41706;BME280;27385;51.096;17.190;2023-04-22T04:41:32;100203.80;;;4.74;73.92
41706;BME280;27385;51.096;17.190;2023-04-22T04:44:03;100200.98;;;4.78;74.00
41706;BME280;27385;51.096;17.190;2023-04-22T04:46:34;100207.86;;;4.83;74.38
41706;BME280;27385;51.096;17.190;2023-04-22T04:49:05;100207.64;;;4.88;74.51
41706;BME280;27385;51.096;17.190;2023-04-22T04:51:37;100209.63;;;4.93;74.68
41706;BME280;27385;51.096;17.190;2023-04-22T04:54:08;100209.02;;;5.00;74.71
41706;BME280;27385;51.096;17.190;2023-04-22T04:56:40;100207.75;;;5.08;75.08
41706;BME280;27385;51.096;17.190;2023-04-22T04:59:10;100208.15;;;5.15;75.32
41706;BME280;27385;51.096;17.190;2023-04-22T05:01:41;100207.93;;;5.22;75.50
41706;BME280;27385;51.096;17.190;2023-04-22T05:04:12;100204.95;;;5.31;75.63
41706;BME280;27385;51.096;17.190;2023-04-22T05:06:43;100209.55;;;5.40;75.83
41706;BME280;27385;51.096;17.190;2023-04-22T05:09:14;100209.09;;;5.49;75.96
41706;BME280;27385;51.096;17.190;2023-04-22T05:11:45;100212.13;;;5.58;76.04
41706;BME280;27385;51.096;17.190;2023-04-22T05:14:16;100208.18;;;5.67;76.36
41706;BME280;27385;51.096;17.190;2023-04-22T05:16:47;100209.80;;;5.79;76.65
41706;BME280;27385;51.096;17.190;2023-04-22T05:19:17;100212.72;;;5.89;76.73
41706;BME280;27385;51.096;17.190;2023-04-22T05:21:48;100216.54;;;5.98;76.99
41706;BME280;27385;51.096;17.190;2023-04-22T05:24:19;100217.80;;;6.11;77.04
41706;BME280;27385;51.096;17.190;2023-04-22T05:26:50;100219.84;;;6.25;76.95
41706;BME280;27385;51.096;17.190;2023-04-22T05:29:21;100217.65;;;6.40;77.11
41706;BME280;27385;51.096;17.190;2023-04-22T05:31:52;100216.77;;;6.55;77.05
41706;BME280;27385;51.096;17.190;2023-04-22T05:34:22;100221.02;;;6.69;76.83
41706;BME280;27385;51.096;17.190;2023-04-22T05:36:53;100223.14;;;6.82;76.84
41706;BME280;27385;51.096;17.190;2023-04-22T05:39:24;100224.70;;;6.92;76.91
41706;BME280;27385;51.096;17.190;2023-04-22T05:41:55;100226.91;;;7.01;77.02
41706;BME280;27385;51.096;17.190;2023-04-22T05:44:26;100225.48;;;7.13;77.18
41706;BME280;27385;51.096;17.190;2023-04-22T05:46:57;100227.73;;;7.24;76.96
41706;BME280;27385;51.096;17.190;2023-04-22T05:49:28;100229.30;;;7.35;76.47
41706;BME280;27385;51.096;17.190;2023-04-22T05:51:58;100225.23;;;7.44;76.34
41706;BME280;27385;51.096;17.190;2023-04-22T05:54:30;100222.72;;;7.53;76.45
41706;BME280;27385;51.096;17.190;2023-04-22T05:57:01;100222.64;;;7.64;76.84
41706;BME280;27385;51.096;17.190;2023-04-22T05:59:32;100216.79;;;7.77;76.61
41706;BME280;27385;51.096;17.190;2023-04-22T06:02:03;100218.98;;;7.91;76.43
41706;BME280;27385;51.096;17.190;2023-04-22T06:04:34;100213.50;;;8.04;76.19
41706;BME280;27385;51.096;17.190;2023-04-22T06:07:05;100213.81;;;8.17;75.97
41706;BME280;27385;51.096;17.190;2023-04-22T06:09:35;100213.58;;;8.30;75.79
41706;BME280;27385;51.096;17.190;2023-04-22T06:12:07;100216.59;;;8.41;75.70
41706;BME280;27385;51.096;17.190;2023-04-22T06:14:37;100215.59;;;8.53;75.64
41706;BME280;27385;51.096;17.190;2023-04-22T06:17:09;100217.33;;;8.65;75.45
41706;BME280;27385;51.096;17.190;2023-04-22T06:19:39;100221.44;;;8.77;75.25
41706;BME280;27385;51.096;17.190;2023-04-22T06:22:10;100217.11;;;8.88;74.80
41706;BME280;27385;51.096;17.190;2023-04-22T06:24:42;100217.00;;;8.98;74.51
41706;BME280;27385;51.096;17.190;2023-04-22T06:27:12;100216.33;;;9.08;74.45
41706;BME280;27385;51.096;17.190;2023-04-22T06:29:43;100220.07;;;9.18;74.48
41706;BME280;27385;51.096;17.190;2023-04-22T06:32:14;100217.98;;;9.28;74.56
41706;BME280;27385;51.096;17.190;2023-04-22T06:34:45;100218.37;;;9.38;74.39
41706;BME280;27385;51.096;17.190;2023-04-22T06:37:16;100217.77;;;9.48;74.47
41706;BME280;27385;51.096;17.190;2023-04-22T06:39:47;100213.77;;;9.58;74.69
41706;BME280;27385;51.096;17.190;2023-04-22T06:42:18;100216.43;;;9.68;74.43
41706;BME280;27385;51.096;17.190;2023-04-22T06:44:49;100216.45;;;9.78;73.85
41706;BME280;27385;51.096;17.190;2023-04-22T06:47:20;100220.09;;;9.88;73.69
41706;BME280;27385;51.096;17.190;2023-04-22T06:49:51;100220.56;;;9.98;73.60
41706;BME280;27385;51.096;17.190;2023-04-22T06:52:22;100216.98;;;10.07;73.41
41706;BME280;27385;51.096;17.190;2023-04-22T06:54:53;100219.62;;;10.15;73.16
41706;BME280;27385;51.096;17.190;2023-04-22T06:57:24;100216.64;;;10.23;73.16
41706;BME280;27385;51.096;17.190;2023-04-22T06:59:55;100217.83;;;10.31;72.68
41706;BME280;27385;51.096;17.190;2023-04-22T07:02:26;100220.59;;;10.40;71.57
41706;BME280;27385;51.096;17.190;2023-04-22T07:04:57;100220.48;;;10.50;71.60
41706;BME280;27385;51.096;17.190;2023-04-22T07:07:28;100221.11;;;10.57;71.38
41706;BME280;27385;51.096;17.190;2023-04-22T07:09:59;100221.05;;;10.68;71.37
41706;BME280;27385;51.096;17.190;2023-04-22T07:12:30;100219.36;;;10.79;71.31
41706;BME280;27385;51.096;17.190;2023-04-22T07:15:01;100221.98;;;10.92;71.22
41706;BME280;27385;51.096;17.190;2023-04-22T07:17:32;100219.84;;;11.03;71.16
41706;BME280;27385;51.096;17.190;2023-04-22T07:20:03;100221.53;;;11.16;71.41
41706;BME280;27385;51.096;17.190;2023-04-22T07:22:34;100219.75;;;11.29;71.38
41706;BME280;27385;51.096;17.190;2023-04-22T07:25:06;100220.13;;;11.44;71.16
41706;BME280;27385;51.096;17.190;2023-04-22T07:27:37;100223.02;;;11.56;70.55
41706;BME280;27385;51.096;17.190;2023-04-22T07:30:10;100223.38;;;11.67;69.77
41706;BME280;27385;51.096;17.190;2023-04-22T07:32:41;100225.50;;;11.78;69.58
41706;BME280;27385;51.096;17.190;2023-04-22T07:35:12;100223.95;;;11.89;69.00
41706;BME280;27385;51.096;17.190;2023-04-22T07:37:43;100222.56;;;11.94;68.94
41706;BME280;27385;51.096;17.190;2023-04-22T07:40:14;100223.77;;;12.05;68.90
41706;BME280;27385;51.096;17.190;2023-04-22T07:42:45;100223.83;;;12.13;68.91
41706;BME280;27385;51.096;17.190;2023-04-22T07:45:16;100227.09;;;12.17;68.37
41706;BME280;27385;51.096;17.190;2023-04-22T07:47:48;100223.89;;;12.23;67.96
41706;BME280;27385;51.096;17.190;2023-04-22T07:50:19;100226.10;;;12.34;67.78
41706;BME280;27385;51.096;17.190;2023-04-22T07:52:50;100224.48;;;12.44;67.39
41706;BME280;27385;51.096;17.190;2023-04-22T07:55:20;100221.31;;;12.51;67.13
41706;BME280;27385;51.096;17.190;2023-04-22T07:57:51;100220.14;;;12.62;67.13
41706;BME280;27385;51.096;17.190;2023-04-22T08:00:22;100217.08;;;12.77;66.74
41706;BME280;27385;51.096;17.190;2023-04-22T08:02:53;100218.04;;;12.85;66.75
41706;BME280;27385;51.096;17.190;2023-04-22T08:05:24;100217.75;;;12.93;66.18
41706;BME280;27385;51.096;17.190;2023-04-22T08:07:55;100217.46;;;13.05;66.11
41706;BME280;27385;51.096;17.190;2023-04-22T08:10:29;100214.50;;;13.15;65.84
41706;BME280;27385;51.096;17.190;2023-04-22T08:13:00;100214.27;;;13.25;65.70
41706;BME280;27385;51.096;17.190;2023-04-22T08:15:31;100213.83;;;13.40;65.92
41706;BME280;27385;51.096;17.190;2023-04-22T08:18:02;100212.33;;;13.51;65.22
41706;BME280;27385;51.096;17.190;2023-04-22T08:20:33;100212.16;;;13.57;64.48
41706;BME280;27385;51.096;17.190;2023-04-22T08:23:04;100215.30;;;13.62;64.49
41706;BME280;27385;51.096;17.190;2023-04-22T08:25:36;100217.59;;;13.71;63.72
41706;BME280;27385;51.096;17.190;2023-04-22T08:28:06;100215.45;;;13.79;63.34
41706;BME280;27385;51.096;17.190;2023-04-22T08:30:37;100212.89;;;13.85;62.60
41706;BME280;27385;51.096;17.190;2023-04-22T08:33:10;100211.75;;;13.94;62.68
41706;BME280;27385;51.096;17.190;2023-04-22T08:35:41;100214.80;;;14.03;62.55
41706;BME280;27385;51.096;17.190;2023-04-22T08:38:12;100210.91;;;14.12;62.40
41706;BME280;27385;51.096;17.190;2023-04-22T08:40:43;100210.27;;;14.26;62.68
41706;BME280;27385;51.096;17.190;2023-04-22T08:43:15;100208.86;;;14.42;62.39
41706;BME280;27385;51.096;17.190;2023-04-22T08:45:46;100206.48;;;14.55;62.29
41706;BME280;27385;51.096;17.190;2023-04-22T08:48:18;100205.59;;;14.69;62.43
41706;BME280;27385;51.096;17.190;2023-04-22T08:50:49;100206.70;;;14.80;62.07
41706;BME280;27385;51.096;17.190;2023-04-22T08:53:20;100202.21;;;14.88;61.83
41706;BME280;27385;51.096;17.190;2023-04-22T08:55:52;100205.02;;;14.97;61.08
41706;BME280;27385;51.096;17.190;2023-04-22T08:58:25;100205.58;;;15.04;60.79
41706;BME280;27385;51.096;17.190;2023-04-22T09:00:57;100206.35;;;15.07;60.94
41706;BME280;27385;51.096;17.190;2023-04-22T09:03:29;100204.62;;;15.16;60.48
41706;BME280;27385;51.096;17.190;2023-04-22T09:06:03;100210.04;;;15.28;59.58
41706;BME280;27385;51.096;17.190;2023-04-22T09:08:34;100205.89;;;15.34;58.98
41706;BME280;27385;51.096;17.190;2023-04-22T09:11:05;100207.77;;;15.41;58.17
41706;BME280;27385;51.096;17.190;2023-04-22T09:13:36;100204.87;;;15.55;58.22
41706;BME280;27385;51.096;17.190;2023-04-22T09:16:09;100205.77;;;15.64;57.71
41706;BME280;27385;51.096;17.190;2023-04-22T09:18:43;100204.30;;;15.73;57.73
41706;BME280;27385;51.096;17.190;2023-04-22T09:21:15;100201.91;;;15.89;57.80
41706;BME280;27385;51.096;17.190;2023-04-22T09:23:50;100202.17;;;15.98;57.19
41706;BME280;27385;51.096;17.190;2023-04-22T09:26:21;100199.40;;;16.03;56.78
41706;BME280;27385;51.096;17.190;2023-04-22T09:28:55;100200.35;;;16.10;56.84
41706;BME280;27385;51.096;17.190;2023-04-22T09:31:28;100195.21;;;16.26;56.10
41706;BME280;27385;51.096;17.190;2023-04-22T09:34:00;100196.39;;;16.36;55.61
41706;BME280;27385;51.096;17.190;2023-04-22T09:36:32;100194.02;;;16.38;55.21
41706;BME280;27385;51.096;17.190;2023-04-22T09:39:06;100194.05;;;16.44;54.68
41706;BME280;27385;51.096;17.190;2023-04-22T09:41:38;100191.68;;;16.49;54.16
41706;BME280;27385;51.096;17.190;2023-04-22T09:44:14;100190.67;;;16.56;53.69
41706;BME280;27385;51.096;17.190;2023-04-22T09:46:49;100188.27;;;16.63;53.47
41706;BME280;27385;51.096;17.190;2023-04-22T09:49:21;100182.83;;;16.71;52.95
41706;BME280;27385;51.096;17.190;2023-04-22T09:51:55;100178.48;;;16.78;51.92
41706;BME280;27385;51.096;17.190;2023-04-22T09:54:26;100174.32;;;16.87;51.44
41706;BME280;27385;51.096;17.190;2023-04-22T09:56:57;100171.45;;;16.92;51.50
41706;BME280;27385;51.096;17.190;2023-04-22T09:59:29;100174.92;;;17.01;50.87
41706;BME280;27385;51.096;17.190;2023-04-22T10:02:02;100174.27;;;17.11;50.93
41706;BME280;27385;51.096;17.190;2023-04-22T10:04:35;100170.84;;;17.17;49.31
41706;BME280;27385;51.096;17.190;2023-04-22T10:07:06;100172.08;;;17.22;49.33
41706;BME280;27385;51.096;17.190;2023-04-22T10:09:37;100166.14;;;17.31;48.97
41706;BME280;27385;51.096;17.190;2023-04-22T10:12:08;100164.96;;;17.41;48.11
41706;BME280;27385;51.096;17.190;2023-04-22T10:14:39;100163.87;;;17.51;48.54
41706;BME280;27385;51.096;17.190;2023-04-22T10:17:10;100159.72;;;17.55;48.19
41706;BME280;27385;51.096;17.190;2023-04-22T10:19:42;100164.41;;;17.63;47.53
41706;BME280;27385;51.096;17.190;2023-04-22T10:22:16;100156.99;;;17.74;47.19
41706;BME280;27385;51.096;17.190;2023-04-22T10:24:47;100155.59;;;17.89;46.74
41706;BME280;27385;51.096;17.190;2023-04-22T10:27:23;100152.78;;;17.99;45.92
41706;BME280;27385;51.096;17.190;2023-04-22T10:29:56;100151.89;;;18.06;46.01
41706;BME280;27385;51.096;17.190;2023-04-22T10:32:27;100149.65;;;18.12;46.07
41706;BME280;27385;51.096;17.190;2023-04-22T10:35:10;100147.48;;;18.17;45.48
41706;BME280;27385;51.096;17.190;2023-04-22T10:37:46;100146.23;;;18.18;44.81
41706;BME280;27385;51.096;17.190;2023-04-22T10:40:18;100146.02;;;18.17;44.21
41706;BME280;27385;51.096;17.190;2023-04-22T10:42:57;100143.91;;;18.25;44.44
41706;BME280;27385;51.096;17.190;2023-04-22T10:45:33;100139.82;;;18.31;43.98
41706;BME280;27385;51.096;17.190;2023-04-22T10:48:05;100135.37;;;18.41;43.35
41706;BME280;27385;51.096;17.190;2023-04-22T10:50:38;100137.16;;;18.50;43.03
41706;BME280;27385;51.096;17.190;2023-04-22T10:53:34;100138.16;;;18.59;43.07
41706;BME280;27385;51.096;17.190;2023-04-22T10:56:16;100135.00;;;18.65;42.33
41706;BME280;27385;51.096;17.190;2023-04-22T10:58:49;100133.47;;;18.67;41.59
41706;BME280;27385;51.096;17.190;2023-04-22T11:01:20;100126.83;;;18.70;41.51
41706;BME280;27385;51.096;17.190;2023-04-22T11:03:51;100125.73;;;18.78;41.86
41706;BME280;27385;51.096;17.190;2023-04-22T11:06:22;100125.34;;;18.86;41.72
41706;BME280;27385;51.096;17.190;2023-04-22T11:09:08;100126.42;;;18.89;41.65
41706;BME280;27385;51.096;17.190;2023-04-22T11:11:41;100122.89;;;18.85;41.10
41706;BME280;27385;51.096;17.190;2023-04-22T11:14:12;100115.31;;;18.83;40.84
41706;BME280;27385;51.096;17.190;2023-04-22T11:16:47;100111.64;;;18.85;41.59
41706;BME280;27385;51.096;17.190;2023-04-22T11:19:20;100103.56;;;18.82;41.78
41706;BME280;27385;51.096;17.190;2023-04-22T11:21:53;100105.27;;;18.78;42.68
41706;BME280;27385;51.096;17.190;2023-04-22T11:24:24;100101.37;;;18.71;42.02
41706;BME280;27385;51.096;17.190;2023-04-22T11:26:57;100098.28;;;18.69;42.15
41706;BME280;27385;51.096;17.190;2023-04-22T11:29:28;100101.66;;;18.69;41.94
41706;BME280;27385;51.096;17.190;2023-04-22T11:31:59;100103.20;;;18.70;41.72
41706;BME280;27385;51.096;17.190;2023-04-22T11:34:30;100097.48;;;18.70;41.14
41706;BME280;27385;51.096;17.190;2023-04-22T11:37:01;100096.60;;;18.68;40.68
41706;BME280;27385;51.096;17.190;2023-04-22T11:39:36;100096.06;;;18.66;41.46
41706;BME280;27385;51.096;17.190;2023-04-22T11:42:07;100092.71;;;18.66;40.93
41706;BME280;27385;51.096;17.190;2023-04-22T11:44:38;100089.10;;;18.64;40.71
41706;BME280;27385;51.096;17.190;2023-04-22T11:47:09;100087.33;;;18.69;40.83
41706;BME280;27385;51.096;17.190;2023-04-22T11:49:41;100085.98;;;18.73;40.62
41706;BME280;27385;51.096;17.190;2023-04-22T11:52:23;100082.10;;;18.74;40.51
41706;BME280;27385;51.096;17.190;2023-04-22T11:54:54;100087.45;;;18.73;40.76
41706;BME280;27385;51.096;17.190;2023-04-22T11:57:35;100079.19;;;18.75;40.71
41706;BME280;27385;51.096;17.190;2023-04-22T12:00:09;100084.12;;;18.75;40.19
41706;BME280;27385;51.096;17.190;2023-04-22T12:02:41;100080.77;;;18.73;40.17
41706;BME280;27385;51.096;17.190;2023-04-22T12:05:13;100080.94;;;18.76;40.33
41706;BME280;27385;51.096;17.190;2023-04-22T12:07:44;100084.38;;;18.79;40.32
41706;BME280;27385;51.096;17.190;2023-04-22T12:10:15;100071.70;;;18.83;38.90
41706;BME280;27385;51.096;17.190;2023-04-22T12:12:46;100073.51;;;18.83;38.76
41706;BME280;27385;51.096;17.190;2023-04-22T12:15:18;100069.32;;;18.84;39.08
41706;BME280;27385;51.096;17.190;2023-04-22T12:17:50;100067.20;;;18.86;38.66
41706;BME280;27385;51.096;17.190;2023-04-22T12:20:21;100069.40;;;18.89;39.24
41706;BME280;27385;51.096;17.190;2023-04-22T12:22:54;100067.65;;;18.89;38.93
41706;BME280;27385;51.096;17.190;2023-04-22T12:25:27;100069.20;;;18.86;38.81
41706;BME280;27385;51.096;17.190;2023-04-22T12:27:58;100070.06;;;18.89;38.52
41706;BME280;27385;51.096;17.190;2023-04-22T12:30:29;100066.48;;;18.93;37.92
41706;BME280;27385;51.096;17.190;2023-04-22T12:33:00;100064.75;;;18.98;37.70
41706;BME280;27385;51.096;17.190;2023-04-22T12:35:31;100060.86;;;19.00;38.00
41706;BME280;27385;51.096;17.190;2023-04-22T12:38:02;100055.76;;;19.04;37.56
41706;BME280;27385;51.096;17.190;2023-04-22T12:40:32;100056.98;;;19.03;37.60
41706;BME280;27385;51.096;17.190;2023-04-22T12:43:03;100053.80;;;19.06;37.23
41706;BME280;27385;51.096;17.190;2023-04-22T12:45:34;100050.44;;;19.05;37.22
41706;BME280;27385;51.096;17.190;2023-04-22T12:48:05;100049.45;;;19.06;37.52
41706;BME280;27385;51.096;17.190;2023-04-22T12:50:36;100043.86;;;19.13;37.59
41706;BME280;27385;51.096;17.190;2023-04-22T12:53:08;100045.36;;;19.25;37.45
41706;BME280;27385;51.096;17.190;2023-04-22T12:55:39;100038.67;;;19.27;36.66
41706;BME280;27385;51.096;17.190;2023-04-22T12:58:10;100029.67;;;19.31;36.80
41706;BME280;27385;51.096;17.190;2023-04-22T13:00:41;100027.66;;;19.30;36.18
41706;BME280;27385;51.096;17.190;2023-04-22T13:03:12;100023.74;;;19.26;36.18
41706;BME280;27385;51.096;17.190;2023-04-22T13:05:42;100019.83;;;19.26;37.05
41706;BME280;27385;51.096;17.190;2023-04-22T13:08:13;100020.77;;;19.31;36.70